Time;durP1;ratioP1;P1;durP2;ratioP2;P2;SDS_P1;SDS_P2;PMS_P1;PMS_P2;Temp;Humidity;BMP_temperature;BMP_pressure;BME280_temperature;BME280_humidity;BME280_pressure;Samples;Min_cycle;Max_cycle;Signal;HPM_P1;HPM_P2
2023/10/15 00:00:12;;;;;;;2.25;1.00;;;18.80;68.20;;;;;;4973615;28;20435;-26
2023/10/15 00:02:42;;;;;;;1.88;0.95;;;18.10;81.00;;;;;;4972930;28;20074;-25
2023/10/15 00:05:10;;;;;;;1.90;1.10;;;17.90;63.30;;;;;;4973603;28;20073;-25
2023/10/15 00:07:37;;;;;;;2.17;1.00;;;;;;;;;;4973405;28;20074;-25
2023/10/15 00:10:10;;;;;;;1.92;1.10;;;19.00;71.40;;;;;;4973549;28;20047;-26
2023/10/15 00:12:37;;;;;;;3.28;1.17;;;18.90;82.00;;;;;;4973138;28;20109;-25
2023/10/15 00:15:07;;;;;;;3.53;1.05;;;18.80;63.70;;;;;;4973426;28;20051;-26
2023/10/15 00:17:34;;;;;;;1.13;0.90;;;18.80;80.00;;;;;;4973196;28;20057;-25
2023/10/15 00:20:09;;;;;;;2.22;1.13;;;18.40;81.90;;;;;;4973055;28;20058;-25
2023/10/15 00:22:37;;;;;;;1.90;0.95;;;;;;;;;;4973198;28;20144;-26
2023/10/15 00:25:09;;;;;;;1.50;1.00;;;18.50;81.90;;;;;;4973308;28;20074;-25
2023/10/15 00:27:36;;;;;;;2.13;1.20;;;18.60;81.90;;;;;;4973373;28;20149;-25
2023/10/15 00:30:05;;;;;;;1.77;0.90;;;17.60;81.70;;;;;;4973019;28;20046;-25
2023/10/15 00:32:33;;;;;;;2.45;1.08;;;19.80;82.60;;;;;;4972961;28;20047;-25
2023/10/15 00:35:04;;;;;;;1.80;0.90;;;17.50;81.40;;;;;;4973072;28;20081;-25
2023/10/15 00:37:31;;;;;;;2.45;1.00;;;18.50;81.90;;;;;;4972328;28;20614;-25
2023/10/15 00:39:59;;;;;;;2.38;1.10;;;18.30;81.90;;;;;;4972966;28;20051;-25
2023/10/15 00:42:26;;;;;;;3.35;0.98;;;18.90;82.50;;;;;;4972895;28;20055;-25
2023/10/15 00:44:57;;;;;;;2.10;0.80;;;;;;;;;;4972380;28;20051;-26
2023/10/15 00:47:23;;;;;;;2.10;1.00;;;19.50;70.10;;;;;;4972689;28;20166;-25
2023/10/15 00:49:50;;;;;;;4.30;1.13;;;18.20;81.90;;;;;;4972939;28;20055;-25
2023/10/15 00:52:19;;;;;;;3.47;1.10;;;19.00;82.20;;;;;;4972240;28;20141;-26
2023/10/15 00:54:46;;;;;;;2.30;1.00;;;19.60;82.80;;;;;;4972829;28;20508;-25
2023/10/15 00:57:41;;;;;;;2.30;1.00;;;19.70;82.50;;;;;;4973136;28;20513;-25
2023/10/15 01:00:37;;;;;;;1.98;0.90;;;19.50;82.40;;;;;;4972972;28;20051;-25
2023/10/15 01:02:57;;;;;;;2.28;1.02;;;18.00;81.70;;;;;;4985787;28;20140;-25
2023/10/15 01:05:25;;;;;;;2.08;0.95;;;18.30;73.30;;;;;;4992379;28;20081;-25
2023/10/15 01:07:54;;;;;;;1.80;0.80;;;18.40;81.90;;;;;;4992094;28;20046;-25
2023/10/15 01:10:31;;;;;;;3.15;1.05;;;18.60;82.10;;;;;;4982858;28;20075;-26
2023/10/15 01:13:04;;;;;;;1.90;0.93;;;19.30;71.80;;;;;;4972746;28;20053;-25
2023/10/15 01:15:34;;;;;;;2.50;1.00;;;18.50;82.50;;;;;;4972850;28;20055;-25
2023/10/15 01:18:07;;;;;;;1.73;0.88;;;18.80;82.70;;;;;;4972681;28;20055;-25
2023/10/15 01:20:36;;;;;;;2.28;1.05;;;18.90;82.30;;;;;;4972602;28;20548;-25
2023/10/15 01:23:05;;;;;;;1.17;0.70;;;19.50;83.00;;;;;;4972669;28;20062;-25
2023/10/15 01:25:34;;;;;;;2.58;0.82;;;18.80;65.80;;;;;;4972811;28;20133;-25
2023/10/15 01:28:01;;;;;;;2.63;1.35;;;18.40;80.80;;;;;;4972366;28;20051;-25
2023/10/15 01:30:34;;;;;;;1.75;0.85;;;18.70;82.60;;;;;;4972588;28;20047;-25
2023/10/15 01:33:07;;;;;;;1.70;0.90;;;18.40;77.20;;;;;;4972387;28;20055;-26
2023/10/15 01:35:38;;;;;;;1.95;1.10;;;18.40;82.70;;;;;;4972569;28;20089;-25
2023/10/15 01:38:20;;;;;;;1.35;0.90;;;;;;;;;;4972063;28;20106;-26
2023/10/15 01:40:53;;;;;;;1.92;1.00;;;18.30;64.30;;;;;;4971217;28;20484;-26
2023/10/15 01:43:23;;;;;;;2.33;0.85;;;;;;;;;;4971754;28;20101;-26
2023/10/15 01:45:56;;;;;;;2.45;0.98;;;;;;;;;;4972201;28;20047;-25
2023/10/15 01:48:27;;;;;;;1.75;0.95;;;17.60;73.80;;;;;;4972665;28;20113;-25
2023/10/15 01:51:04;;;;;;;1.85;0.90;;;18.50;82.50;;;;;;4972615;28;20051;-26
2023/10/15 01:53:34;;;;;;;1.33;0.85;;;18.90;82.80;;;;;;4972627;28;20109;-25
2023/10/15 01:56:03;;;;;;;1.23;0.80;;;18.30;64.20;;;;;;4973066;28;20709;-25
2023/10/15 01:58:32;;;;;;;1.63;1.00;;;18.00;76.00;;;;;;4975490;28;20053;-25
2023/10/15 02:01:08;;;;;;;1.85;0.80;;;18.10;82.60;;;;;;4975661;28;20070;-25
2023/10/15 02:03:37;;;;;;;1.92;1.17;;;;;;;;;;4994492;28;20054;-26
2023/10/15 02:06:07;;;;;;;1.65;0.80;;;18.30;64.30;;;;;;4976848;28;20057;-25
2023/10/15 02:08:37;;;;;;;2.05;0.82;;;;;;;;;;4975406;28;20477;-26
2023/10/15 02:11:15;;;;;;;2.30;0.80;;;18.30;64.30;;;;;;4975360;28;20105;-26
2023/10/15 02:13:44;;;;;;;0.85;0.80;;;;;;;;;;4975662;28;20059;-26
2023/10/15 02:16:15;;;;;;;1.15;0.82;;;18.50;83.10;;;;;;4975454;28;20492;-25
2023/10/15 02:18:44;;;;;;;1.02;0.65;;;17.20;79.60;;;;;;4974997;28;20055;-25
2023/10/15 02:21:11;;;;;;;2.05;0.90;;;18.30;64.40;;;;;;4975126;28;20055;-25
2023/10/15 02:23:48;;;;;;;1.58;0.85;;;18.30;75.00;;;;;;4975550;28;20054;-25
2023/10/15 02:26:18;;;;;;;2.13;0.80;;;18.70;82.90;;;;;;4975234;28;20051;-25
2023/10/15 02:28:46;;;;;;;3.17;1.10;;;17.90;82.80;;;;;;4975131;28;20539;-25
2023/10/15 02:31:19;;;;;;;1.15;0.77;;;18.60;83.20;;;;;;4975007;28;20050;-24
2023/10/15 02:33:47;;;;;;;2.42;0.88;;;;;;;;;;4974974;28;20054;-26
2023/10/15 02:36:16;;;;;;;2.58;1.10;;;18.10;82.40;;;;;;4958361;28;20047;-25
2023/10/15 02:38:53;;;;;;;3.50;1.00;;;;;;;;;;4975023;28;20050;-25
2023/10/15 02:41:21;;;;;;;1.83;0.90;;;19.50;83.30;;;;;;4974740;28;20047;-24
2023/10/15 02:43:53;;;;;;;1.35;0.80;;;18.00;82.30;;;;;;4975020;28;20055;-25
2023/10/15 02:46:22;;;;;;;2.70;0.85;;;18.40;64.40;;;;;;4975161;28;20051;-25
2023/10/15 02:48:53;;;;;;;3.85;1.00;;;18.70;69.90;;;;;;4974679;28;20051;-25
2023/10/15 02:51:23;;;;;;;2.30;1.10;;;18.10;82.40;;;;;;4974523;28;20074;-25
2023/10/15 02:53:52;;;;;;;1.50;0.82;;;17.40;82.10;;;;;;4974736;28;20492;-25
2023/10/15 02:56:21;;;;;;;0.90;0.80;;;18.40;66.40;;;;;;4974782;28;20105;-26
2023/10/15 02:58:48;;;;;;;1.58;1.00;;;18.20;82.80;;;;;;4974496;28;20050;-25
2023/10/15 03:01:19;;;;;;;1.95;0.80;;;;;;;;;;4974461;28;20050;-28
2023/10/15 03:03:49;;;;;;;1.42;0.60;;;18.30;74.70;;;;;;4955326;28;20051;-25
2023/10/15 03:06:19;;;;;;;1.92;0.77;;;19.70;74.20;;;;;;4955339;28;20138;-25
2023/10/15 03:08:47;;;;;;;1.83;1.00;;;18.90;64.80;;;;;;4966368;28;20051;-25
2023/10/15 03:11:14;;;;;;;1.58;0.77;;;18.30;72.60;;;;;;4974189;28;20551;-25
2023/10/15 03:13:52;;;;;;;2.33;0.85;;;18.50;82.10;;;;;;4974511;28;20043;-24
2023/10/15 03:16:20;;;;;;;1.73;0.70;;;;;;;;;;4974435;28;20059;-24
2023/10/15 03:18:50;;;;;;;0.95;0.60;;;18.30;82.20;;;;;;4974522;28;20050;-27
2023/10/15 03:21:20;;;;;;;2.20;1.08;;;18.10;75.60;;;;;;4974158;28;20122;-27
2023/10/15 03:23:49;;;;;;;1.40;0.80;;;18.30;82.70;;;;;;4974260;28;20113;-27
2023/10/15 03:26:18;;;;;;;1.60;0.70;;;18.50;64.30;;;;;;4973597;28;20055;-26
2023/10/15 03:28:51;;;;;;;1.90;0.90;;;18.40;82.40;;;;;;4974014;28;20130;-27
2023/10/15 03:31:20;;;;;;;1.88;0.80;;;19.70;68.30;;;;;;4973945;28;20054;-26
2023/10/15 03:34:12;;;;;;;1.17;0.73;;;17.70;82.00;;;;;;4974205;28;20533;-27
2023/10/15 03:36:47;;;;;;;1.38;0.90;;;17.70;82.10;;;;;;4973264;28;20082;-27
2023/10/15 03:39:16;;;;;;;;;;;18.40;64.40;;;;;;4974558;28;20069;-26
2023/10/15 03:41:44;;;;;;;1.13;0.75;;;18.30;82.70;;;;;;4973272;28;20024;-28
2023/10/15 03:44:13;;;;;;;1.40;0.80;;;17.10;63.60;;;;;;4973613;28;20042;-27
2023/10/15 03:46:41;;;;;;;0.98;0.75;;;;;;;;;;4973633;28;20500;-26
2023/10/15 03:49:08;;;;;;;2.28;0.85;;;18.10;82.30;;;;;;4973693;28;20047;-28
2023/10/15 03:51:40;;;;;;;1.52;0.80;;;18.40;82.80;;;;;;4972622;28;20113;-28
2023/10/15 03:54:08;;;;;;;2.85;0.90;;;18.10;82.40;;;;;;4973642;28;20078;-28
2023/10/15 03:56:35;;;;;;;1.25;0.82;;;;;;;;;;4973405;28;20515;-28
2023/10/15 03:59:03;;;;;;;1.42;0.80;;;18.90;82.90;;;;;;4973250;28;20042;-28
2023/10/15 04:01:31;;;;;;;0.50;0.50;;;18.50;83.00;;;;;;4975311;28;20046;-28
2023/10/15 04:04:02;;;;;;;1.33;0.70;;;18.40;83.10;;;;;;4992892;28;20055;-28
2023/10/15 04:06:29;;;;;;;1.08;0.60;;;;;;;;;;4992938;28;20492;-27
2023/10/15 04:09:08;;;;;;;2.40;0.90;;;18.40;83.40;;;;;;4992834;28;20131;-28
2023/10/15 04:11:42;;;;;;;1.77;0.88;;;;;;;;;;4992503;28;20056;-26
2023/10/15 04:14:13;;;;;;;1.27;0.85;;;18.40;83.70;;;;;;4993013;28;20061;-28
2023/10/15 04:16:42;;;;;;;1.50;0.80;;;18.40;65.00;;;;;;4979849;28;20061;-28
2023/10/15 04:19:09;;;;;;;1.73;0.70;;;18.80;83.50;;;;;;4972454;28;20050;-28
2023/10/15 04:21:38;;;;;;;1.75;0.90;;;18.50;65.10;;;;;;4973107;28;20074;-28
2023/10/15 04:24:06;;;;;;;1.13;0.68;;;18.40;83.50;;;;;;4973105;28;20121;-28
2023/10/15 04:26:35;;;;;;;1.27;0.60;;;17.60;83.10;;;;;;4973345;28;20054;-28
2023/10/15 04:29:15;;;;;;;1.00;0.60;;;18.50;75.20;;;;;;4973385;28;20117;-28
2023/10/15 04:31:46;;;;;;;0.95;0.70;;;18.20;68.60;;;;;;4972906;28;20058;-28
2023/10/15 04:34:17;;;;;;;2.67;1.00;;;;;;;;;;4965533;28;20098;-28
2023/10/15 04:36:44;;;;;;;1.45;0.75;;;;;;;;;;4972607;28;20059;-28
2023/10/15 04:39:12;;;;;;;2.15;0.77;;;18.00;83.30;;;;;;4973152;28;20074;-28
2023/10/15 04:41:39;;;;;;;1.55;0.70;;;;;;;;;;4972985;28;20051;-28
2023/10/15 04:44:11;;;;;;;1.23;0.75;;;18.50;64.90;;;;;;4972928;28;20097;-28
2023/10/15 04:46:42;;;;;;;1.85;0.98;;;;;;;;;;4973096;28;20055;-25
2023/10/15 04:49:10;;;;;;;1.20;0.70;;;18.90;82.30;;;;;;4972173;28;20057;-28
2023/10/15 04:51:42;;;;;;;1.05;0.70;;;;;;;;;;4973091;28;20489;-28
2023/10/15 04:54:09;;;;;;;1.58;0.80;;;19.10;65.60;;;;;;4973149;28;20139;-28
2023/10/15 04:56:36;;;;;;;2.45;0.80;;;18.80;83.50;;;;;;4972667;28;20121;-28
2023/10/15 04:59:04;;;;;;;1.75;0.77;;;18.50;81.90;;;;;;4971244;28;20057;-28
2023/10/15 05:01:31;;;;;;;1.05;0.70;;;;;;;;;;4973327;28;20121;-28
2023/10/15 05:04:00;;;;;;;1.52;0.90;;;18.70;83.30;;;;;;4972561;28;20050;-28
2023/10/15 05:06:28;;;;;;;1.60;0.90;;;18.70;74.20;;;;;;4971998;28;20628;-28
2023/10/15 05:08:55;;;;;;;1.17;0.70;;;18.30;83.10;;;;;;4972329;28;20042;-28
2023/10/15 05:11:23;;;;;;;1.38;0.70;;;18.00;82.40;;;;;;4972510;28;20051;-28
2023/10/15 05:13:50;;;;;;;2.88;1.00;;;19.20;77.50;;;;;;4972483;28;20062;-28
2023/10/15 05:16:17;;;;;;;1.35;0.75;;;;;;;;;;4972484;28;20055;-28
2023/10/15 05:18:44;;;;;;;1.55;0.80;;;18.10;79.30;;;;;;4972061;28;20097;-25
2023/10/15 05:21:13;;;;;;;1.50;0.73;;;;;;;;;;4972392;28;20061;-26
2023/10/15 05:23:41;;;;;;;1.38;0.85;;;19.00;66.20;;;;;;4971994;28;20050;-26
2023/10/15 05:26:08;;;;;;;1.15;0.82;;;19.40;69.80;;;;;;4969793;28;20412;-26
2023/10/15 05:28:34;;;;;;;0.93;0.70;;;18.70;82.70;;;;;;4971991;28;20412;-26
2023/10/15 05:31:01;;;;;;;0.85;0.70;;;18.30;82.80;;;;;;4974092;28;20050;-25
2023/10/15 05:33:29;;;;;;;0.98;0.70;;;19.50;83.30;;;;;;4973385;28;20047;-26
2023/10/15 05:35:56;;;;;;;3.17;0.88;;;18.50;82.90;;;;;;4975408;28;20500;-25
2023/10/15 05:38:25;;;;;;;2.28;0.90;;;18.70;70.70;;;;;;4972867;28;20061;-25
2023/10/15 05:40:57;;;;;;;1.25;0.63;;;18.70;71.40;;;;;;4974753;28;20057;-25
2023/10/15 05:43:24;;;;;;;2.25;0.95;;;;;;;;;;4975447;28;20607;-26
2023/10/15 05:45:51;;;;;;;0.90;0.52;;;18.80;82.50;;;;;;4975937;28;20129;-25
2023/10/15 05:48:18;;;;;;;0.93;0.65;;;;;;;;;;4975879;28;20051;-25
2023/10/15 05:50:48;;;;;;;1.20;0.70;;;18.80;83.00;;;;;;4975593;28;20059;-25
2023/10/15 05:53:15;;;;;;;1.52;0.70;;;17.80;77.20;;;;;;4972430;28;20515;-25
2023/10/15 05:55:42;;;;;;;1.92;0.80;;;;;;;;;;4975076;28;20058;-26
2023/10/15 05:58:11;;;;;;;1.58;0.70;;;18.90;69.00;;;;;;4972961;28;20484;-25
2023/10/15 06:00:39;;;;;;;1.17;0.70;;;18.80;83.00;;;;;;4974563;28;20093;-25
2023/10/15 06:03:06;;;;;;;0.77;0.77;;;18.70;82.50;;;;;;4976297;28;20047;-25
2023/10/15 06:05:33;;;;;;;2.53;1.00;;;19.40;83.30;;;;;;4975127;28;20074;-25
2023/10/15 06:08:00;;;;;;;0.98;0.60;;;18.90;82.60;;;;;;4975363;28;20039;-25
2023/10/15 06:10:29;;;;;;;4.05;1.23;;;18.70;67.10;;;;;;4975127;28;20047;-25
2023/10/15 06:12:56;;;;;;;0.82;0.50;;;18.80;83.00;;;;;;4975039;28;20098;-25
2023/10/15 06:15:24;;;;;;;1.13;0.70;;;19.00;64.70;;;;;;4975337;28;20093;-26
2023/10/15 06:17:51;;;;;;;1.60;0.65;;;;;;;;;;4972624;28;20496;-26
2023/10/15 06:20:18;;;;;;;1.65;0.70;;;19.50;83.00;;;;;;4975274;28;20047;-25
2023/10/15 06:22:46;;;;;;;2.60;0.82;;;18.90;64.60;;;;;;4974765;28;20046;-26
2023/10/15 06:25:13;;;;;;;1.10;0.60;;;19.40;83.10;;;;;;4975109;28;20054;-25
2023/10/15 06:27:40;;;;;;;1.23;0.75;;;18.60;82.50;;;;;;4974895;28;20047;-25
2023/10/15 06:30:09;;;;;;;1.50;0.65;;;18.90;82.90;;;;;;4974595;28;20511;-25
2023/10/15 06:32:37;;;;;;;1.02;0.52;;;18.00;82.10;;;;;;4974460;28;20451;-25
2023/10/15 06:35:05;;;;;;;2.35;0.60;;;18.70;82.60;;;;;;4974813;28;20098;-25
2023/10/15 06:37:32;;;;;;;1.40;0.63;;;17.90;71.10;;;;;;4970619;28;20054;-26
2023/10/15 06:40:00;;;;;;;0.93;0.70;;;18.90;82.40;;;;;;4966536;28;20102;-25
2023/10/15 06:42:27;;;;;;;1.23;0.70;;;19.00;82.90;;;;;;4968836;28;20086;-25
2023/10/15 06:44:53;;;;;;;1.00;0.60;;;18.20;81.90;;;;;;4975069;28;20109;-25
2023/10/15 06:47:20;;;;;;;1.52;0.60;;;18.90;71.30;;;;;;4974830;28;20122;-25
2023/10/15 06:49:53;;;;;;;2.42;0.88;;;18.80;82.70;;;;;;4974959;28;20082;-25
2023/10/15 06:52:20;;;;;;;0.82;0.52;;;;;;;;;;4975246;28;20047;-26
2023/10/15 06:54:47;;;;;;;0.65;0.60;;;19.80;83.20;;;;;;4974559;28;20055;-25
2023/10/15 06:57:16;;;;;;;2.03;0.73;;;;;;;;;;4974909;28;20046;-25
2023/10/15 06:59:43;;;;;;;1.48;0.73;;;18.70;79.60;;;;;;4974865;28;20061;-25
2023/10/15 07:02:09;;;;;;;1.65;0.75;;;19.30;82.30;;;;;;4981929;28;20101;-25
2023/10/15 07:04:36;;;;;;;0.75;0.50;;;;;;;;;;4978311;28;20117;-25
2023/10/15 07:07:04;;;;;;;1.33;0.70;;;19.00;81.80;;;;;;4974852;28;20110;-25
2023/10/15 07:09:32;;;;;;;1.13;0.68;;;18.20;81.60;;;;;;4974993;28;20160;-24
2023/10/15 07:11:59;;;;;;;1.33;0.80;;;18.20;81.80;;;;;;4974547;28;20105;-25
2023/10/15 07:14:26;;;;;;;0.90;0.57;;;19.70;81.90;;;;;;4974632;28;20051;-24
2023/10/15 07:16:53;;;;;;;1.77;0.60;;;19.40;67.40;;;;;;4974529;28;20055;-26
2023/10/15 07:19:20;;;;;;;2.35;0.70;;;19.20;81.40;;;;;;4974234;28;20426;-26
2023/10/15 07:21:47;;;;;;;1.45;0.70;;;19.20;76.10;;;;;;4973914;28;20078;-25
2023/10/15 07:24:16;;;;;;;2.00;0.80;;;18.40;80.70;;;;;;4974318;28;20051;-25
2023/10/15 07:26:43;;;;;;;0.90;0.60;;;19.50;81.40;;;;;;4974304;28;20104;-25
2023/10/15 07:29:09;;;;;;;0.88;0.50;;;21.00;73.70;;;;;;4974341;28;20047;-26
2023/10/15 07:31:38;;;;;;;0.90;0.50;;;19.60;80.90;;;;;;4974071;28;20477;-25
2023/10/15 07:34:05;;;;;;;1.67;0.70;;;19.70;80.90;;;;;;4974326;28;20055;-25
2023/10/15 07:36:32;;;;;;;1.58;0.90;;;19.00;80.80;;;;;;4973690;28;20385;-26
2023/10/15 07:38:59;;;;;;;1.60;0.80;;;19.80;81.10;;;;;;4967523;28;20101;-26
2023/10/15 07:41:28;;;;;;;1.27;0.70;;;19.90;80.50;;;;;;4964621;28;20513;-26
2023/10/15 07:43:56;;;;;;;1.80;0.75;;;;;;;;;;4956891;28;20505;-26
2023/10/15 07:46:23;;;;;;;3.00;0.80;;;19.70;81.20;;;;;;4954888;28;20106;-26
2023/10/15 07:48:49;;;;;;;2.40;0.88;;;20.10;81.30;;;;;;4954760;28;20043;-26
2023/10/15 07:51:16;;;;;;;2.97;0.70;;;19.90;77.60;;;;;;4954716;28;20051;-26
2023/10/15 07:53:43;;;;;;;2.03;0.70;;;20.10;80.70;;;;;;4964700;28;20047;-26
2023/10/15 07:56:12;;;;;;;2.75;0.68;;;20.30;81.10;;;;;;4973130;28;20055;-25
2023/10/15 07:58:40;;;;;;;1.75;0.63;;;20.20;80.80;;;;;;4970173;28;20043;-25
2023/10/15 08:01:07;;;;;;;1.33;0.70;;;20.30;80.40;;;;;;4968507;28;20105;-25
2023/10/15 08:03:33;;;;;;;1.13;0.70;;;19.30;80.10;;;;;;4992209;28;20109;-27
2023/10/15 08:06:01;;;;;;;1.15;0.65;;;20.30;62.80;;;;;;4993074;28;20050;-27
2023/10/15 08:08:29;;;;;;;0.63;0.55;;;;;;;;;;4992987;28;20100;-28
2023/10/15 08:10:56;;;;;;;2.35;0.95;;;20.30;79.80;;;;;;4982465;28;20046;-25
2023/10/15 08:13:24;;;;;;;0.80;0.52;;;21.60;80.50;;;;;;4972903;28;20516;-25
2023/10/15 08:15:52;;;;;;;2.78;0.50;;;20.40;69.60;;;;;;4973199;28;20054;-25
2023/10/15 08:18:20;;;;;;;1.33;0.68;;;20.50;72.00;;;;;;4969289;28;20051;-25
2023/10/15 08:20:47;;;;;;;1.80;0.77;;;20.40;66.00;;;;;;4973555;28;20058;-26
2023/10/15 08:23:14;;;;;;;1.67;0.63;;;20.70;80.20;;;;;;4962376;28;20456;-25
2023/10/15 08:25:41;;;;;;;0.98;0.60;;;;;;;;;;4953839;28;20047;-28
2023/10/15 08:28:10;;;;;;;0.68;0.45;;;20.60;79.70;;;;;;4953958;28;20062;-25
2023/10/15 08:30:38;;;;;;;1.10;0.68;;;;;;;;;;4954291;28;20059;-27
2023/10/15 08:33:10;;;;;;;1.63;0.70;;;20.50;79.50;;;;;;4953895;28;20098;-25
2023/10/15 08:35:38;;;;;;;0.65;0.55;;;;;;;;;;4966667;28;20461;-26
2023/10/15 08:38:07;;;;;;;0.98;0.60;;;;;;;;;;4972374;28;20491;-25
2023/10/15 08:40:35;;;;;;;1.42;0.60;;;21.20;80.10;;;;;;4973145;28;20448;-25
2023/10/15 08:43:12;;;;;;;1.05;0.70;;;20.80;66.20;;;;;;4973063;28;20054;-25
2023/10/15 08:45:39;;;;;;;1.45;0.57;;;21.00;79.90;;;;;;4966161;28;20043;-25
2023/10/15 08:48:09;;;;;;;0.65;0.60;;;21.60;67.40;;;;;;4954018;28;20417;-25
2023/10/15 08:50:37;;;;;;;0.57;0.50;;;20.90;62.20;;;;;;4953789;28;20054;-27
2023/10/15 08:53:06;;;;;;;1.13;0.70;;;22.00;63.90;;;;;;4953465;28;20086;-26
2023/10/15 08:55:33;;;;;;;0.70;0.60;;;21.00;78.80;;;;;;4975610;28;20101;-25
2023/10/15 08:58:00;;;;;;;0.40;0.40;;;21.00;77.90;;;;;;4972872;28;20053;-25
2023/10/15 09:00:28;;;;;;;0.90;0.52;;;21.00;78.60;;;;;;4972956;28;20186;-25
2023/10/15 09:02:56;;;;;;;0.88;0.40;;;22.30;79.40;;;;;;4983290;28;20055;-25
2023/10/15 09:05:24;;;;;;;0.55;0.50;;;21.50;79.50;;;;;;4954706;28;20062;-27
2023/10/15 09:07:51;;;;;;;0.93;0.60;;;21.20;79.40;;;;;;4970252;28;20051;-26
2023/10/15 09:10:18;;;;;;;1.00;0.70;;;;;;;;;;4975964;28;20112;-26
2023/10/15 09:12:45;;;;;;;0.73;0.60;;;21.20;78.70;;;;;;4976105;28;20101;-27
2023/10/15 09:15:16;;;;;;;1.23;0.50;;;21.10;77.10;;;;;;4975929;28;20051;-27
2023/10/15 09:17:49;;;;;;;1.40;0.50;;;21.40;79.50;;;;;;4976051;28;20053;-27
2023/10/15 09:20:26;;;;;;;1.80;0.50;;;;;;;;;;4976080;28;20451;-26
2023/10/15 09:22:55;;;;;;;0.73;0.47;;;22.20;63.20;;;;;;4975966;28;20416;-26
2023/10/15 09:25:22;;;;;;;3.33;0.60;;;20.80;78.90;;;;;;4975937;28;20389;-27
2023/10/15 09:27:49;;;;;;;1.25;0.50;;;;;;;;;;4975763;28;20102;-27
2023/10/15 09:30:19;;;;;;;1.25;0.60;;;21.30;62.20;;;;;;4975833;28;20491;-27
2023/10/15 09:32:47;;;;;;;0.75;0.68;;;21.20;78.40;;;;;;4975850;28;20043;-28
2023/10/15 09:35:14;;;;;;;1.13;0.60;;;21.40;79.00;;;;;;4975999;28;20054;-28
2023/10/15 09:37:41;;;;;;;0.63;0.50;;;21.40;78.70;;;;;;4972612;28;20435;-28
2023/10/15 09:40:18;;;;;;;0.50;0.50;;;21.30;74.10;;;;;;4972761;28;20102;-28
2023/10/15 09:42:45;;;;;;;1.08;0.63;;;;;;;;;;4972755;28;20057;-26
2023/10/15 09:45:18;;;;;;;1.63;0.70;;;21.80;79.30;;;;;;4975048;28;20586;-28
2023/10/15 09:47:48;;;;;;;1.58;0.60;;;21.80;79.20;;;;;;4973669;28;20050;-28
2023/10/15 09:50:17;;;;;;;1.63;0.68;;;20.90;79.60;;;;;;4975275;28;20043;-26
2023/10/15 09:52:44;;;;;;;2.25;0.90;;;20.70;73.00;;;;;;4973312;28;20101;-26
2023/10/15 09:55:12;;;;;;;1.58;0.70;;;21.60;79.70;;;;;;4975395;28;20047;-26
2023/10/15 09:57:40;;;;;;;1.48;0.70;;;21.00;62.30;;;;;;4975248;28;20117;-26
2023/10/15 10:00:14;;;;;;;1.00;0.60;;;20.90;67.40;;;;;;4975523;28;20117;-25
2023/10/15 10:02:44;;;;;;;2.75;0.80;;;21.00;62.50;;;;;;4975444;28;20047;-25
2023/10/15 10:05:17;;;;;;;0.80;0.50;;;20.80;79.30;;;;;;4975247;28;20054;-25
2023/10/15 10:07:55;;;;;;;0.93;0.70;;;20.90;62.50;;;;;;4975349;28;20055;-28
2023/10/15 10:10:52;;;;;;;1.33;0.80;;;20.40;71.90;;;;;;4972446;28;20078;-25
2023/10/15 10:13:39;;;;;;;1.90;0.65;;;20.80;79.10;;;;;;4974272;28;20074;-25
2023/10/15 10:16:06;;;;;;;1.48;0.80;;;20.70;79.10;;;;;;4974598;28;20667;-25
2023/10/15 10:18:37;;;;;;;1.90;0.68;;;;;;;;;;4974392;28;20492;-28
2023/10/15 10:21:07;;;;;;;1.17;0.60;;;21.30;79.70;;;;;;4972663;28;20050;-28
2023/10/15 10:23:35;;;;;;;1.15;0.70;;;;;;;;;;4975074;28;20046;-28
2023/10/15 10:26:10;;;;;;;0.75;0.50;;;20.80;79.40;;;;;;4972387;28;20067;-28
2023/10/15 10:28:37;;;;;;;0.82;0.60;;;20.60;79.30;;;;;;4974530;28;20054;-28
2023/10/15 10:31:06;;;;;;;1.52;0.70;;;19.60;78.50;;;;;;4974839;28;20148;-28
2023/10/15 10:33:40;;;;;;;1.45;0.70;;;19.60;63.90;;;;;;4974825;28;20086;-28
2023/10/15 10:36:12;;;;;;;1.77;0.73;;;20.60;77.80;;;;;;4974906;28;20054;-28
2023/10/15 10:38:39;;;;;;;1.33;0.63;;;;;;;;;;4974386;28;20053;-26
2023/10/15 10:41:13;;;;;;;1.48;0.73;;;19.80;61.90;;;;;;4975167;28;20051;-28
2023/10/15 10:43:40;;;;;;;3.63;0.98;;;19.60;78.80;;;;;;4974855;28;20070;-28
2023/10/15 10:46:07;;;;;;;1.70;0.80;;;20.40;69.50;;;;;;4975299;28;20046;-27
2023/10/15 10:48:37;;;;;;;2.35;0.80;;;20.30;78.90;;;;;;4974984;28;20051;-28
2023/10/15 10:51:12;;;;;;;4.78;0.82;;;20.30;72.70;;;;;;4969111;28;20062;-28
2023/10/15 10:53:39;;;;;;;1.15;0.60;;;;;;;;;;4974825;28;20086;-27
2023/10/15 10:56:08;;;;;;;2.83;0.80;;;20.30;79.30;;;;;;4974621;28;20050;-28
2023/10/15 10:58:37;;;;;;;4.05;0.90;;;20.30;79.10;;;;;;4975002;28;20057;-28
2023/10/15 11:01:06;;;;;;;2.53;0.70;;;20.20;64.50;;;;;;4973358;28;20105;-26
2023/10/15 11:03:33;;;;;;;1.63;0.90;;;20.20;62.30;;;;;;4993066;28;20455;-25
2023/10/15 11:06:00;;;;;;;2.75;0.88;;;21.20;78.90;;;;;;4988837;28;20047;-25
2023/10/15 11:08:27;;;;;;;1.85;0.75;;;;;;;;;;4974699;28;20527;-26
2023/10/15 11:10:54;;;;;;;4.55;0.80;;;20.10;68.80;;;;;;4964481;28;20051;-26
2023/10/15 11:13:22;;;;;;;2.88;0.77;;;20.10;67.20;;;;;;4960291;28;20047;-26
2023/10/15 11:15:50;;;;;;;1.58;0.70;;;20.20;79.20;;;;;;4960590;28;20055;-26
2023/10/15 11:18:21;;;;;;;3.40;0.77;;;20.20;79.40;;;;;;4974267;28;20403;-26
2023/10/15 11:20:50;;;;;;;2.97;0.80;;;;;;;;;;4974112;28;20183;-26
2023/10/15 11:23:17;;;;;;;1.42;0.80;;;19.00;78.80;;;;;;4973199;28;20047;-26
2023/10/15 11:25:43;;;;;;;2.33;0.85;;;19.10;79.40;;;;;;4971613;28;20125;-26
2023/10/15 11:28:11;;;;;;;1.52;0.93;;;;;;;;;;4973546;28;20050;-27
2023/10/15 11:30:41;;;;;;;2.38;0.85;;;20.00;79.60;;;;;;4974323;28;20492;-26
2023/10/15 11:33:09;;;;;;;1.10;0.60;;;;;;;;;;4974047;28;20101;-27
2023/10/15 11:35:36;;;;;;;1.85;0.77;;;20.00;62.40;;;;;;4973508;28;20059;-26
2023/10/15 11:38:07;;;;;;;4.85;0.98;;;20.00;62.40;;;;;;4973139;28;20097;-26
2023/10/15 11:40:36;;;;;;;1.48;0.77;;;19.60;79.10;;;;;;4973838;28;20047;-27
2023/10/15 11:43:04;;;;;;;2.55;0.70;;;20.00;79.40;;;;;;4971386;28;20050;-26
2023/10/15 11:45:31;;;;;;;2.28;0.63;;;20.40;79.70;;;;;;4973240;28;20050;-26
2023/10/15 11:47:59;;;;;;;1.25;0.68;;;19.30;70.60;;;;;;4973478;28;20101;-26
2023/10/15 11:50:26;;;;;;;2.03;0.80;;;20.90;80.10;;;;;;4973435;28;20081;-27
2023/10/15 11:52:55;;;;;;;2.15;0.82;;;19.90;70.00;;;;;;4973392;28;20074;-26
2023/10/15 11:55:22;;;;;;;1.95;0.70;;;20.30;80.50;;;;;;4973657;28;20152;-26
2023/10/15 11:57:50;;;;;;;0.90;0.70;;;20.10;80.80;;;;;;4973848;28;20057;-25
2023/10/15 12:00:23;;;;;;;1.02;0.70;;;19.40;80.20;;;;;;4973822;28;20058;-25
2023/10/15 12:02:51;;;;;;;6.53;0.82;;;19.70;62.70;;;;;;4972933;28;20050;-26
2023/10/15 12:05:20;;;;;;;2.47;1.00;;;19.50;79.80;;;;;;4971704;28;20081;-26
2023/10/15 12:07:48;;;;;;;2.58;0.77;;;19.60;80.00;;;;;;4972681;28;20043;-25
2023/10/15 12:10:15;;;;;;;2.47;0.90;;;;;;;;;;4973274;28;20042;-25
2023/10/15 12:12:42;;;;;;;1.15;0.60;;;19.20;63.20;;;;;;4972644;28;20419;-26
2023/10/15 12:15:10;;;;;;;3.08;0.80;;;19.30;80.20;;;;;;4972526;28;20444;-26
2023/10/15 12:17:37;;;;;;;1.55;0.68;;;19.50;72.80;;;;;;4972955;28;20054;-25
2023/10/15 12:20:06;;;;;;;2.13;0.73;;;19.40;80.40;;;;;;4973104;28;20051;-25
2023/10/15 12:22:35;;;;;;;1.02;0.60;;;19.50;80.70;;;;;;4972705;28;20053;-25
2023/10/15 12:25:01;;;;;;;1.58;0.77;;;19.10;80.80;;;;;;4972332;28;20468;-26
2023/10/15 12:27:29;;;;;;;1.88;0.90;;;19.90;71.70;;;;;;4972592;28;20488;-25
2023/10/15 12:29:56;;;;;;;1.00;0.68;;;19.30;80.50;;;;;;4972915;28;20043;-25
2023/10/15 12:32:23;;;;;;;1.10;0.73;;;19.30;75.60;;;;;;4970139;28;20050;-25
2023/10/15 12:34:50;;;;;;;1.48;0.80;;;18.50;65.90;;;;;;4972019;28;20049;-26
2023/10/15 12:37:19;;;;;;;2.83;1.17;;;19.40;80.60;;;;;;4969534;28;20531;-25
2023/10/15 12:39:49;;;;;;;3.28;0.82;;;19.40;63.20;;;;;;4971530;28;20122;-26
2023/10/15 12:42:18;;;;;;;1.75;0.80;;;19.50;80.60;;;;;;4973307;28;20137;-26
2023/10/15 12:44:46;;;;;;;1.13;0.57;;;19.10;77.00;;;;;;4973242;28;20086;-26
2023/10/15 12:47:13;;;;;;;1.27;0.73;;;19.30;80.60;;;;;;4965791;28;20555;-26
2023/10/15 12:49:40;;;;;;;1.83;0.90;;;18.70;81.10;;;;;;4953887;28;20051;-25
2023/10/15 12:52:08;;;;;;;0.95;0.60;;;;;;;;;;4953677;28;20051;-26
2023/10/15 12:54:35;;;;;;;1.10;0.70;;;;;;;;;;4953608;28;20142;-25
2023/10/15 12:57:04;;;;;;;1.15;0.82;;;19.30;63.60;;;;;;4963140;28;20054;-29
2023/10/15 12:59:31;;;;;;;1.85;0.70;;;;;;;;;;4972340;28;20105;-26
2023/10/15 13:01:58;;;;;;;1.40;0.70;;;19.10;80.60;;;;;;4972481;28;20566;-28
2023/10/15 13:04:24;;;;;;;1.60;0.82;;;19.00;80.70;;;;;;4972714;28;20567;-28
2023/10/15 13:06:51;;;;;;;1.90;0.88;;;20.40;67.70;;;;;;4972822;28;20086;-28
2023/10/15 13:09:21;;;;;;;2.25;0.73;;;19.00;81.20;;;;;;4972995;28;20055;-28
2023/10/15 13:11:48;;;;;;;0.75;0.65;;;19.20;81.00;;;;;;4973392;28;20090;-28
2023/10/15 13:14:16;;;;;;;2.63;0.90;;;19.10;81.00;;;;;;4971970;28;20099;-28